createdAt,value
2019-02-15T00:00:31.303Z,99.25
2019-02-15T00:01:31.276Z,99.63
2019-02-15T00:02:31.242Z,98.96
2019-02-15T00:03:31.225Z,99.25
2019-02-15T00:04:31.196Z,99.63
2019-02-15T00:05:31.176Z,99.72
2019-02-15T00:06:31.141Z,99.63
2019-02-15T00:07:31.116Z,99.99
2019-02-15T00:08:31.096Z,99.99
2019-02-15T00:09:31.063Z,99.91
2019-02-15T00:10:31.052Z,99.99
2019-02-15T00:11:31.010Z,99.99
2019-02-15T00:12:30.989Z,99.99
2019-02-15T00:13:30.966Z,99.99
2019-02-15T00:14:30.931Z,99.99
2019-02-15T00:15:30.905Z,99.99
2019-02-15T00:16:30.887Z,99.99
2019-02-15T00:17:30.853Z,99.99
2019-02-15T00:18:30.828Z,99.99
2019-02-15T00:19:30.801Z,99.99
2019-02-15T00:20:30.776Z,99.99
2019-02-15T00:21:30.750Z,99.99
2019-02-15T00:22:30.735Z,99.99
2019-02-15T00:23:30.701Z,99.99
2019-02-15T00:24:30.678Z,99.99
2019-02-15T00:25:30.649Z,99.99
2019-02-15T00:26:30.621Z,99.99
2019-02-15T00:27:30.599Z,99.99
2019-02-15T00:28:30.568Z,99.99
2019-02-15T00:29:30.543Z,99.99
2019-02-15T00:30:30.521Z,99.99
2019-02-15T00:31:30.506Z,99.99
2019-02-15T00:32:30.472Z,99.99
2019-02-15T00:33:30.438Z,99.99
2019-02-15T00:34:30.413Z,99.99
2019-02-15T00:35:30.385Z,99.99
2019-02-15T00:36:30.368Z,99.99
2019-02-15T00:37:30.338Z,99.99
2019-02-15T00:38:30.312Z,99.99
2019-02-15T00:39:30.290Z,99.99
2019-02-15T00:40:30.260Z,99.99
2019-02-15T00:41:30.237Z,99.99
2019-02-15T00:42:30.203Z,99.99
2019-02-15T00:43:30.185Z,99.99
2019-02-15T00:44:30.150Z,99.99
2019-02-15T00:45:30.125Z,99.99
2019-02-15T00:46:30.099Z,99.99
2019-02-15T00:47:30.075Z,99.99
2019-02-15T00:48:30.046Z,99.99
2019-02-15T00:49:30.035Z,99.99
2019-02-15T00:50:30.006Z,99.99
2019-02-15T00:51:29.973Z,99.99
2019-02-15T00:52:29.944Z,99.99
2019-02-15T00:53:29.947Z,99.99
2019-02-15T00:54:29.891Z,99.99
2019-02-15T00:55:29.869Z,99.99
2019-02-15T00:56:29.839Z,99.99
2019-02-15T00:57:29.824Z,99.99
2019-02-15T00:58:29.784Z,99.99
2019-02-15T00:59:29.759Z,99.99
2019-02-15T01:00:29.734Z,99.99
2019-02-15T01:01:29.718Z,99.99
2019-02-15T01:02:29.681Z,99.99
2019-02-15T01:03:29.656Z,99.99
2019-02-15T01:04:29.630Z,99.99
2019-02-15T01:05:29.604Z,99.99
2019-02-15T01:06:29.576Z,99.99
2019-02-15T01:07:29.556Z,99.99
2019-02-15T01:08:29.533Z,99.99
2019-02-15T01:09:29.510Z,99.99
2019-02-15T01:10:29.480Z,99.86
2019-02-15T01:11:29.455Z,99.99
2019-02-15T01:12:29.422Z,99.99
2019-02-15T01:13:31.111Z,99.99
2019-02-15T01:14:29.369Z,99.99
2019-02-15T01:15:29.346Z,99.99
2019-02-15T01:16:29.315Z,99.99
2019-02-15T01:17:29.290Z,99.99
2019-02-15T01:18:29.413Z,99.99
2019-02-15T01:19:29.245Z,99.99
2019-02-15T01:20:29.214Z,99.99
2019-02-15T01:21:29.198Z,99.99
2019-02-15T01:22:29.158Z,99.99
2019-02-15T01:23:29.135Z,99.99
2019-02-15T01:24:29.106Z,99.99
2019-02-15T01:25:29.129Z,99.99
2019-02-15T01:26:29.054Z,99.99
2019-02-15T01:27:29.045Z,99.99
2019-02-15T01:28:29.001Z,99.99
2019-02-15T01:29:28.975Z,99.99
2019-02-15T01:30:28.953Z,99.99
2019-02-15T01:31:28.922Z,99.99
2019-02-15T01:32:28.895Z,99.99
2019-02-15T01:33:28.869Z,99.99
2019-02-15T01:34:28.841Z,99.99
2019-02-15T01:35:28.818Z,99.99
2019-02-15T01:36:28.811Z,99.99
2019-02-15T01:37:28.765Z,99.99
2019-02-15T01:38:28.737Z,99.99
2019-02-15T01:39:28.717Z,99.99
2019-02-15T01:40:28.683Z,99.99
2019-02-15T01:41:28.663Z,99.99
2019-02-15T01:42:28.631Z,99.99
2019-02-15T01:43:28.714Z,99.99
2019-02-15T01:44:28.578Z,99.99
2019-02-15T01:45:28.580Z,99.99
2019-02-15T01:46:28.529Z,99.99
2019-02-15T01:47:28.504Z,99.99
2019-02-15T01:48:28.474Z,99.99
2019-02-15T01:49:28.447Z,99.99
2019-02-15T01:50:28.422Z,99.99
2019-02-15T01:51:28.398Z,99.99
2019-02-15T01:52:28.379Z,99.99
2019-02-15T01:53:28.341Z,99.99
2019-02-15T01:54:28.346Z,99.99
2019-02-15T01:55:28.287Z,99.99
2019-02-15T01:56:28.261Z,99.99
2019-02-15T01:57:28.235Z,99.99
2019-02-15T01:58:28.216Z,99.99
2019-02-15T01:59:28.192Z,99.99
2019-02-15T02:00:28.156Z,99.99
2019-02-15T02:01:28.137Z,99.99
2019-02-15T02:02:28.103Z,99.99
2019-02-15T02:03:28.078Z,99.99
2019-02-15T02:04:28.048Z,99.99
2019-02-15T02:05:28.031Z,99.99
2019-02-15T02:06:27.995Z,99.99
2019-02-15T02:07:27.980Z,99.99
2019-02-15T02:08:27.952Z,99.99
2019-02-15T02:09:27.918Z,99.99
2019-02-15T02:10:27.899Z,99.99
2019-02-15T02:11:27.872Z,99.99
2019-02-15T02:12:27.843Z,99.99
2019-02-15T02:13:27.830Z,99.99
2019-02-15T02:14:27.784Z,99.99
2019-02-15T02:15:27.764Z,99.99
2019-02-15T02:16:27.731Z,99.99
2019-02-15T02:17:27.722Z,99.99
2019-02-15T02:18:27.677Z,99.99
2019-02-15T02:19:27.651Z,99.99
2019-02-15T02:20:27.630Z,99.99
2019-02-15T02:21:27.597Z,99.99
2019-02-15T02:22:27.578Z,99.99
2019-02-15T02:23:27.563Z,99.99
2019-02-15T02:24:27.526Z,99.99
2019-02-15T02:25:27.595Z,99.99
2019-02-15T02:26:27.464Z,99.99
2019-02-15T02:27:27.437Z,99.99
2019-02-15T02:28:27.410Z,99.99
2019-02-15T02:29:27.401Z,99.99
2019-02-15T02:30:27.364Z,99.99
2019-02-15T02:31:27.334Z,99.99
2019-02-15T02:32:27.306Z,99.99
2019-02-15T02:33:27.280Z,99.99
2019-02-15T02:34:27.260Z,99.99
2019-02-15T02:35:27.224Z,99.99
2019-02-15T02:36:27.198Z,99.99
2019-02-15T02:37:27.172Z,99.99
2019-02-15T02:38:27.144Z,99.99
2019-02-15T02:39:27.117Z,99.99
2019-02-15T02:40:27.107Z,99.99
2019-02-15T02:41:27.077Z,99.99
2019-02-15T02:42:27.048Z,99.99
2019-02-15T02:43:27.013Z,99.99
2019-02-15T02:44:27.018Z,99.99
2019-02-15T02:45:26.967Z,99.99
2019-02-15T02:46:26.931Z,99.99
2019-02-15T02:47:26.903Z,99.99
2019-02-15T02:48:26.877Z,99.99
2019-02-15T02:49:26.855Z,99.99
2019-02-15T02:50:26.834Z,99.99
2019-02-15T02:51:26.795Z,99.99
2019-02-15T02:52:26.777Z,99.99
2019-02-15T02:53:26.745Z,99.99
2019-02-15T02:54:26.716Z,99.99
2019-02-15T02:55:26.701Z,99.99
2019-02-15T02:56:26.665Z,99.99
2019-02-15T02:57:26.670Z,99.99
2019-02-15T02:58:26.609Z,99.99
2019-02-15T02:59:26.588Z,99.99
2019-02-15T03:00:33.317Z,99.99
2019-02-15T03:01:26.671Z,99.99
2019-02-15T03:02:26.514Z,99.99
2019-02-15T03:03:26.475Z,99.99
2019-02-15T03:04:26.465Z,99.99
2019-02-15T03:05:26.424Z,99.99
2019-02-15T03:06:26.395Z,99.99
2019-02-15T03:07:26.387Z,99.99
2019-02-15T03:08:26.340Z,99.99
2019-02-15T03:09:26.326Z,99.99
2019-02-15T03:10:26.286Z,99.99
2019-02-15T03:11:26.266Z,99.99
2019-02-15T03:12:26.231Z,99.99
2019-02-15T03:13:26.213Z,99.99
2019-02-15T03:14:26.179Z,99.99
2019-02-15T03:15:26.169Z,99.99
2019-02-15T03:16:26.125Z,99.99
2019-02-15T03:17:26.101Z,99.99
2019-02-15T03:18:26.070Z,99.99
2019-02-15T03:19:26.044Z,99.99
2019-02-15T03:20:31.311Z,99.99
2019-02-15T03:21:25.992Z,99.99
2019-02-15T03:22:25.962Z,99.99
2019-02-15T03:23:25.939Z,99.99
2019-02-15T03:24:25.912Z,99.99
2019-02-15T03:25:25.882Z,99.99
2019-02-15T03:26:25.857Z,99.99
2019-02-15T03:27:25.836Z,99.99
2019-02-15T03:28:25.803Z,99.99
2019-02-15T03:29:25.782Z,99.99
2019-02-15T03:30:25.753Z,99.99
2019-02-15T03:31:25.723Z,99.99
2019-02-15T03:32:25.723Z,99.99
2019-02-15T03:33:25.679Z,99.99
2019-02-15T03:34:25.671Z,99.99
2019-02-15T03:35:25.613Z,99.99
2019-02-15T03:36:25.587Z,99.99
2019-02-15T03:37:25.558Z,99.99
2019-02-15T03:38:25.536Z,99.99
2019-02-15T03:39:25.504Z,99.99
2019-02-15T03:40:25.489Z,99.99
2019-02-15T03:41:25.455Z,99.99
2019-02-15T03:42:25.433Z,99.99
2019-02-15T03:43:25.497Z,99.99
2019-02-15T03:44:25.369Z,99.99
2019-02-15T03:45:25.345Z,99.99
2019-02-15T03:46:25.318Z,99.99
2019-02-15T03:47:25.291Z,99.99
2019-02-15T03:48:25.262Z,99.99
2019-02-15T03:49:25.235Z,99.99
2019-02-15T03:50:25.219Z,99.99
2019-02-15T03:51:25.190Z,99.99
2019-02-15T03:52:25.154Z,99.99
2019-02-15T03:53:25.134Z,99.99
2019-02-15T03:54:25.100Z,99.99
2019-02-15T03:55:25.083Z,99.99
2019-02-15T03:56:25.045Z,99.99
2019-02-15T03:57:25.032Z,99.99
2019-02-15T03:58:25.008Z,99.99
2019-02-15T03:59:24.964Z,99.99
2019-02-15T04:00:24.942Z,99.99
2019-02-15T04:01:24.909Z,99.99
2019-02-15T04:02:24.884Z,99.99
2019-02-15T04:03:24.854Z,99.99
2019-02-15T04:04:24.829Z,99.99
2019-02-15T04:05:24.803Z,99.99
2019-02-15T04:06:24.773Z,99.99
2019-02-15T04:07:24.777Z,99.99
2019-02-15T04:08:24.718Z,99.99
2019-02-15T04:09:24.696Z,99.99
2019-02-15T04:10:24.666Z,99.99
2019-02-15T04:11:24.660Z,99.99
2019-02-15T04:12:24.611Z,99.99
2019-02-15T04:13:24.593Z,99.99
2019-02-15T04:14:32.602Z,99.99
2019-02-15T04:15:24.531Z,99.99
2019-02-15T04:16:24.506Z,99.99
2019-02-15T04:17:24.477Z,99.99
2019-02-15T04:18:24.455Z,99.99
2019-02-15T04:19:24.427Z,99.99
2019-02-15T04:20:24.406Z,99.99
2019-02-15T04:21:24.367Z,99.99
2019-02-15T04:22:24.344Z,99.99
2019-02-15T04:23:24.317Z,99.99
2019-02-15T04:24:24.287Z,99.99
2019-02-15T04:25:24.363Z,99.99
2019-02-15T04:26:24.229Z,99.99
2019-02-15T04:27:24.206Z,99.99
2019-02-15T04:28:24.177Z,99.99
2019-02-15T04:29:24.158Z,99.99
2019-02-15T04:30:24.123Z,99.99
2019-02-15T04:31:24.096Z,99.99
2019-02-15T04:32:24.069Z,99.99
2019-02-15T04:33:24.049Z,99.99
2019-02-15T04:34:24.014Z,99.99
2019-02-15T04:35:23.989Z,99.99
2019-02-15T04:36:23.968Z,99.99
2019-02-15T04:37:23.945Z,99.99
2019-02-15T04:38:23.905Z,99.99
2019-02-15T04:39:23.878Z,99.99
2019-02-15T04:40:23.859Z,99.99
2019-02-15T04:41:23.826Z,99.99
2019-02-15T04:42:23.796Z,99.99
2019-02-15T04:43:23.769Z,99.99
2019-02-15T04:44:23.745Z,99.99
2019-02-15T04:45:23.715Z,99.99
2019-02-15T04:46:23.689Z,99.99
2019-02-15T04:47:23.670Z,99.99
2019-02-15T04:48:23.636Z,99.99
2019-02-15T04:49:23.607Z,99.99
2019-02-15T04:50:23.588Z,99.99
2019-02-15T04:51:23.554Z,99.99
2019-02-15T04:52:23.523Z,99.99
2019-02-15T04:53:23.500Z,99.99
2019-02-15T04:54:23.474Z,99.99
2019-02-15T04:55:23.444Z,99.99
2019-02-15T04:56:23.472Z,99.99
2019-02-15T04:57:23.394Z,99.99
2019-02-15T04:58:23.371Z,99.99
2019-02-15T04:59:23.334Z,99.99
2019-02-15T05:00:23.309Z,99.99
2019-02-15T05:01:23.282Z,99.99
2019-02-15T05:02:23.252Z,99.99
2019-02-15T05:03:23.227Z,99.99
2019-02-15T05:04:23.200Z,99.99
2019-02-15T05:05:23.171Z,99.99
2019-02-15T05:06:23.153Z,99.99
2019-02-15T05:07:23.118Z,99.99
2019-02-15T05:08:23.093Z,99.99
2019-02-15T05:09:23.999Z,99.99
2019-02-15T05:10:23.034Z,99.99
2019-02-15T05:11:23.009Z,99.99
2019-02-15T05:12:22.982Z,99.99
2019-02-15T05:13:22.962Z,99.99
2019-02-15T05:14:22.928Z,99.99
2019-02-15T05:15:22.900Z,99.99
2019-02-15T05:16:22.891Z,99.99
2019-02-15T05:17:22.845Z,99.99
2019-02-15T05:18:22.827Z,99.99
2019-02-15T05:19:22.790Z,99.99
2019-02-15T05:20:22.763Z,99.99
2019-02-15T05:21:22.735Z,99.99
2019-02-15T05:22:22.708Z,99.99
2019-02-15T05:23:22.686Z,99.99
2019-02-15T05:24:22.669Z,99.99
2019-02-15T05:25:22.634Z,99.99
2019-02-15T05:26:22.600Z,99.99
2019-02-15T05:27:22.572Z,99.99
2019-02-15T05:28:22.549Z,99.99
2019-02-15T05:29:22.520Z,99.99
2019-02-15T05:30:22.497Z,99.99
2019-02-15T05:31:22.489Z,99.99
2019-02-15T05:32:22.537Z,99.99
2019-02-15T05:33:22.426Z,99.99
2019-02-15T05:34:22.388Z,99.99
2019-02-15T05:35:22.354Z,99.99
2019-02-15T05:36:22.335Z,99.99
2019-02-15T05:37:22.302Z,99.99
2019-02-15T05:38:22.276Z,99.99
2019-02-15T05:39:22.259Z,99.99
2019-02-15T05:40:22.237Z,99.99
2019-02-15T05:41:22.192Z,99.99
2019-02-15T05:42:22.163Z,99.99
2019-02-15T05:43:22.136Z,99.99
2019-02-15T05:44:22.116Z,99.99
2019-02-15T05:45:22.084Z,99.99
2019-02-15T05:46:22.059Z,99.99
2019-02-15T05:47:22.032Z,99.99
2019-02-15T05:48:22.011Z,99.99
2019-02-15T05:49:21.975Z,99.99
2019-02-15T05:50:21.947Z,99.99
2019-02-15T05:51:21.923Z,99.99
2019-02-15T05:52:21.893Z,99.99
2019-02-15T05:53:21.871Z,99.99
2019-02-15T05:54:21.837Z,99.99
2019-02-15T05:55:21.811Z,99.99
2019-02-15T05:56:21.784Z,99.99
2019-02-15T05:57:21.759Z,99.33
2019-02-15T05:58:21.728Z,98.86
2019-02-15T05:59:21.707Z,98.68
2019-02-15T06:00:21.685Z,98.86
2019-02-15T06:01:21.648Z,98.39
2019-02-15T06:02:21.627Z,97.44
2019-02-15T06:03:21.593Z,97.63
2019-02-15T06:04:21.583Z,97.06
2019-02-15T06:05:21.541Z,97.06
2019-02-15T06:06:21.510Z,96.88
2019-02-15T06:07:21.482Z,96.50
2019-02-15T06:08:21.457Z,96.31
2019-02-15T06:09:21.430Z,95.55
2019-02-15T06:10:21.403Z,95.36
2019-02-15T06:11:21.378Z,95.26
2019-02-15T06:12:21.349Z,94.04
2019-02-15T06:13:21.325Z,94.98
2019-02-15T06:14:21.354Z,96.12
2019-02-15T06:15:21.274Z,96.31
2019-02-15T06:16:21.240Z,94.89
2019-02-15T06:17:21.231Z,93.94
2019-02-15T06:18:21.188Z,93.84
2019-02-15T06:19:21.163Z,93.46
2019-02-15T06:20:21.136Z,93.04
2019-02-15T06:21:21.121Z,92.85
2019-02-15T06:22:21.085Z,93.61
2019-02-15T06:23:21.050Z,93.51
2019-02-15T06:24:21.023Z,93.04
2019-02-15T06:25:20.998Z,93.13
2019-02-15T06:26:20.978Z,92.28
2019-02-15T06:27:20.942Z,93.51
2019-02-15T06:28:20.923Z,94.37
2019-02-15T06:29:20.894Z,94.84
2019-02-15T06:30:20.878Z,95.22
2019-02-15T06:31:20.833Z,96.26
2019-02-15T06:32:20.805Z,97.02
2019-02-15T06:33:20.797Z,97.11
2019-02-15T06:34:20.753Z,97.97
2019-02-15T06:35:20.726Z,98.39
2019-02-15T06:36:20.697Z,98.86
2019-02-15T06:37:20.671Z,98.54
2019-02-15T06:38:20.651Z,99.15
2019-02-15T06:39:20.615Z,98.77
2019-02-15T06:40:20.588Z,99.62
2019-02-15T06:41:20.570Z,99.62
2019-02-15T06:42:20.536Z,99.52
2019-02-15T06:43:20.521Z,99.33
2019-02-15T06:44:20.490Z,99.52
2019-02-15T06:45:25.057Z,98.96
2019-02-15T06:46:20.427Z,98.68
2019-02-15T06:47:20.399Z,99.24
2019-02-15T06:48:20.383Z,99.05
2019-02-15T06:49:20.346Z,97.92
2019-02-15T06:50:20.328Z,98.49
2019-02-15T06:51:20.308Z,97.82
2019-02-15T06:52:20.267Z,98.49
2019-02-15T06:53:20.252Z,98.77
2019-02-15T06:54:20.218Z,98.86
2019-02-15T06:55:20.191Z,99.24
2019-02-15T06:56:20.157Z,98.86
2019-02-15T06:57:20.133Z,98.77
2019-02-15T06:58:20.101Z,99.05
2019-02-15T06:59:20.083Z,98.11
2019-02-15T07:00:20.051Z,99.15
2019-02-15T07:01:20.022Z,98.91
2019-02-15T07:02:19.993Z,99.43
2019-02-15T07:03:19.965Z,99.05
2019-02-15T07:04:19.940Z,98.86
2019-02-15T07:05:19.920Z,99.05
2019-02-15T07:06:19.891Z,99.48
2019-02-15T07:07:19.866Z,99.39
2019-02-15T07:08:19.831Z,99.52
2019-02-15T07:09:19.809Z,99.96
2019-02-15T07:10:19.778Z,99.96
2019-02-15T07:11:19.759Z,99.99
2019-02-15T07:12:19.723Z,99.33
2019-02-15T07:13:19.697Z,98.77
2019-02-15T07:14:20.969Z,99.24
2019-02-15T07:15:19.742Z,99.99
2019-02-15T07:16:19.639Z,99.39
2019-02-15T07:17:19.586Z,99.48
2019-02-15T07:18:19.560Z,99.58
2019-02-15T07:19:19.533Z,99.20
2019-02-15T07:20:19.511Z,99.01
2019-02-15T07:21:19.537Z,99.86
2019-02-15T07:22:19.452Z,99.99
2019-02-15T07:23:19.429Z,99.99
2019-02-15T07:24:19.406Z,99.99
2019-02-15T07:25:19.372Z,99.99
2019-02-15T07:26:19.373Z,99.99
2019-02-15T07:27:19.321Z,99.99
2019-02-15T07:28:19.306Z,99.77
2019-02-15T07:29:19.274Z,99.86
2019-02-15T07:30:19.244Z,99.77
2019-02-15T07:31:19.209Z,99.67
2019-02-15T07:32:19.183Z,99.96
2019-02-15T07:33:19.158Z,99.67
2019-02-15T07:34:19.135Z,99.77
2019-02-15T07:35:19.115Z,99.39
2019-02-15T07:36:19.084Z,98.82
2019-02-15T07:37:19.049Z,98.63
2019-02-15T07:38:19.021Z,99.10
2019-02-15T07:39:18.992Z,99.01
2019-02-15T07:40:18.999Z,98.72
2019-02-15T07:41:18.940Z,98.72
2019-02-15T07:42:21.063Z,98.44
2019-02-15T07:43:18.886Z,97.78
2019-02-15T07:44:18.859Z,98.54
2019-02-15T07:45:18.834Z,98.16
2019-02-15T07:46:18.806Z,98.25
2019-02-15T07:47:18.785Z,98.54
2019-02-15T07:48:18.752Z,98.63
2019-02-15T07:49:26.697Z,99.10
2019-02-15T07:50:18.699Z,98.72
2019-02-15T07:51:18.672Z,98.54
2019-02-15T07:52:18.649Z,97.59
2019-02-15T07:53:18.618Z,97.30
2019-02-15T07:54:18.591Z,97.59
2019-02-15T07:55:18.575Z,97.30
2019-02-15T07:56:18.538Z,97.30
2019-02-15T07:57:18.563Z,96.73
2019-02-15T07:58:18.489Z,96.97
2019-02-15T07:59:18.458Z,96.78
2019-02-15T08:00:18.438Z,97.73
2019-02-15T08:01:18.407Z,97.64
2019-02-15T08:02:18.389Z,97.35
2019-02-15T08:03:18.352Z,96.59
2019-02-15T08:04:18.323Z,96.59
2019-02-15T08:05:18.301Z,95.36
2019-02-15T08:06:18.273Z,93.84
2019-02-15T08:07:18.244Z,94.13
2019-02-15T08:08:18.224Z,94.70
2019-02-15T08:09:18.199Z,93.94
2019-02-15T08:10:18.164Z,93.84
2019-02-15T08:11:18.140Z,93.75
2019-02-15T08:12:18.130Z,93.56
2019-02-15T08:13:18.086Z,93.75
2019-02-15T08:14:18.058Z,91.95
2019-02-15T08:15:18.038Z,89.01
2019-02-15T08:16:18.012Z,89.39
2019-02-15T08:17:17.991Z,89.67
2019-02-15T08:18:17.958Z,88.73
2019-02-15T08:19:17.928Z,89.58
2019-02-15T08:20:17.901Z,89.20
2019-02-15T08:21:17.876Z,88.35
2019-02-15T08:22:17.853Z,87.40
2019-02-15T08:23:17.821Z,87.77
2019-02-15T08:24:17.798Z,86.40
2019-02-15T08:25:17.778Z,86.21
2019-02-15T08:26:17.756Z,86.40
2019-02-15T08:27:17.715Z,85.74
2019-02-15T08:28:17.690Z,83.94
2019-02-15T08:29:17.684Z,84.88
2019-02-15T08:30:17.636Z,85.26
2019-02-15T08:31:17.610Z,84.88
2019-02-15T08:32:17.592Z,85.55
2019-02-15T08:33:17.573Z,84.22
2019-02-15T08:34:17.533Z,83.46
2019-02-15T08:35:17.510Z,83.17
2019-02-15T08:36:17.493Z,84.03
2019-02-15T08:37:17.466Z,82.70
2019-02-15T08:38:17.427Z,82.74
2019-02-15T08:39:17.401Z,82.74
2019-02-15T08:40:17.378Z,83.03
2019-02-15T08:41:17.358Z,82.46
2019-02-15T08:42:17.329Z,82.36
2019-02-15T08:43:17.299Z,83.03
2019-02-15T08:44:17.285Z,81.60
2019-02-15T08:45:17.248Z,82.46
2019-02-15T08:46:17.223Z,81.51
2019-02-15T08:47:17.199Z,81.51
2019-02-15T08:48:17.178Z,81.04
2019-02-15T08:49:17.161Z,80.37
2019-02-15T08:50:17.132Z,81.32
2019-02-15T08:51:17.091Z,80.75
2019-02-15T08:52:17.065Z,79.71
2019-02-15T08:53:17.053Z,79.52
2019-02-15T08:54:17.025Z,80.18
2019-02-15T08:55:16.989Z,80.08
2019-02-15T08:56:16.961Z,80.75
2019-02-15T08:57:16.937Z,81.65
2019-02-15T08:58:16.910Z,81.41
2019-02-15T08:59:16.886Z,80.69
2019-02-15T09:00:16.861Z,79.84
2019-02-15T09:01:16.836Z,80.03
2019-02-15T09:02:16.810Z,79.36
2019-02-15T09:03:16.785Z,78.23
2019-02-15T09:04:16.758Z,77.75
2019-02-15T09:05:16.735Z,77.47
2019-02-15T09:06:16.706Z,77.31
2019-02-15T09:07:16.689Z,76.75
2019-02-15T09:08:16.677Z,76.37
2019-02-15T09:09:16.632Z,76.27
2019-02-15T09:10:16.603Z,75.89
2019-02-15T09:11:16.579Z,75.99
2019-02-15T09:12:16.554Z,75.99
2019-02-15T09:13:16.532Z,75.13
2019-02-15T09:14:16.511Z,74.47
2019-02-15T09:15:16.479Z,74.22
2019-02-15T09:16:16.468Z,73.84
2019-02-15T09:17:16.427Z,73.84
2019-02-15T09:18:16.400Z,73.27
2019-02-15T09:19:16.378Z,72.79
2019-02-15T09:20:16.352Z,72.70
2019-02-15T09:21:16.339Z,72.41
2019-02-15T09:22:16.300Z,71.94
2019-02-15T09:23:16.275Z,71.27
2019-02-15T09:24:16.251Z,71.59
2019-02-15T09:25:16.226Z,71.12
2019-02-15T09:26:18.129Z,71.02
2019-02-15T09:27:16.181Z,71.22
2019-02-15T09:28:16.161Z,71.22
2019-02-15T09:29:16.127Z,71.12
2019-02-15T09:30:16.112Z,71.22
2019-02-15T09:31:16.077Z,71.02
2019-02-15T09:32:16.049Z,70.58
2019-02-15T09:33:16.028Z,69.48
2019-02-15T09:34:16.000Z,67.80
2019-02-15T09:35:15.977Z,65.73
2019-02-15T09:36:15.956Z,64.53
2019-02-15T09:37:15.933Z,62.75
2019-02-15T09:38:15.904Z,61.22
2019-02-15T09:39:15.880Z,59.34
2019-02-15T09:40:15.868Z,59.53
2019-02-15T09:41:15.834Z,58.23
2019-02-15T09:42:15.819Z,56.63
2019-02-15T09:43:15.794Z,55.42
2019-02-15T09:44:15.769Z,54.88
2019-02-15T09:45:15.756Z,53.73
2019-02-15T09:46:19.861Z,52.99
2019-02-15T09:47:15.713Z,52.32
2019-02-15T09:48:41.431Z,52.13
2019-02-15T09:49:15.677Z,51.17
2019-02-15T09:50:15.970Z,50.79
2019-02-15T09:51:15.654Z,50.50
2019-02-15T09:52:18.233Z,49.95
2019-02-15T09:53:15.591Z,49.95
2019-02-15T09:54:15.564Z,49.48
2019-02-15T09:55:15.550Z,49.02
2019-02-15T09:56:15.534Z,48.35
2019-02-15T09:57:15.525Z,48.38
2019-02-15T09:58:16.540Z,47.82
2019-02-15T10:00:15.479Z,46.77
2019-02-15T10:01:15.463Z,46.58
2019-02-15T10:02:15.469Z,46.39
2019-02-15T10:03:15.410Z,45.81
2019-02-15T10:04:15.406Z,46.65
2019-02-15T10:05:15.379Z,47.32
2019-02-15T10:06:15.344Z,47.13
2019-02-15T10:07:15.328Z,47.58
2019-02-15T10:08:15.310Z,48.07
2019-02-15T10:09:15.305Z,48.16
2019-02-15T10:10:15.276Z,47.89
2019-02-15T10:11:15.264Z,47.89
2019-02-15T10:12:15.242Z,46.96
2019-02-15T10:13:15.227Z,46.67
2019-02-15T10:14:15.217Z,46.19
2019-02-15T10:16:15.175Z,46.39
2019-02-15T10:17:15.162Z,46.22
2019-02-15T10:18:15.143Z,46.34
2019-02-15T10:19:22.208Z,45.47
2019-02-15T10:20:15.117Z,44.44
2019-02-15T10:21:15.103Z,44.27
2019-02-15T10:22:15.081Z,42.35
2019-02-15T10:23:15.064Z,42.44
2019-02-15T10:24:15.057Z,42.73
2019-02-15T10:25:15.032Z,42.64
2019-02-15T10:26:15.018Z,42.30
2019-02-15T10:27:15.002Z,44.23
2019-02-15T10:28:14.994Z,44.44
2019-02-15T10:29:14.978Z,44.24
2019-02-15T10:30:14.955Z,44.17
2019-02-15T10:31:14.943Z,42.54
2019-02-15T10:32:14.933Z,42.61
2019-02-15T10:33:14.912Z,43.74
2019-02-15T10:34:14.902Z,44.51
2019-02-15T10:35:14.884Z,44.56
2019-02-15T10:36:14.863Z,43.43
2019-02-15T10:37:14.860Z,42.18
2019-02-15T10:38:14.847Z,41.96
2019-02-15T10:39:14.870Z,42.35
2019-02-15T10:40:14.802Z,42.18
2019-02-15T10:41:14.788Z,42.27
2019-02-15T10:42:14.770Z,42.27
2019-02-15T10:43:14.765Z,41.99
2019-02-15T10:44:14.744Z,41.99
2019-02-15T10:45:14.726Z,41.79
2019-02-15T10:46:14.709Z,41.24
2019-02-15T10:47:24.422Z,41.24
2019-02-15T10:48:14.687Z,41.53
2019-02-15T10:49:14.664Z,41.43
2019-02-15T10:50:14.652Z,41.72
2019-02-15T10:51:14.643Z,41.43
2019-02-15T10:52:14.622Z,40.95
2019-02-15T10:53:14.608Z,40.85
2019-02-15T10:54:14.590Z,41.33
2019-02-15T10:55:14.573Z,40.68
2019-02-15T10:56:14.562Z,40.68
2019-02-15T10:57:14.561Z,39.91
2019-02-15T10:58:14.529Z,39.93
2019-02-15T10:59:14.529Z,40.03
2019-02-15T11:00:14.507Z,39.45
2019-02-15T11:01:14.484Z,38.87
2019-02-15T11:02:14.470Z,38.95
2019-02-15T11:03:14.464Z,39.24
2019-02-15T11:04:14.440Z,39.14
2019-02-15T11:05:14.422Z,39.31
2019-02-15T11:06:14.422Z,39.89
2019-02-15T11:07:14.393Z,40.47
2019-02-15T11:08:14.378Z,40.85
2019-02-15T11:09:14.363Z,41.22
2019-02-15T11:10:14.344Z,41.91
2019-02-15T11:11:14.329Z,41.33
2019-02-15T11:12:14.315Z,41.26
2019-02-15T11:13:14.303Z,40.58
2019-02-15T11:14:14.279Z,40.03
2019-02-15T11:15:14.269Z,39.37
2019-02-15T11:16:14.258Z,38.79
2019-02-15T11:17:14.244Z,39.28
2019-02-15T11:18:14.222Z,38.99
2019-02-15T11:19:14.202Z,38.68
2019-02-15T11:20:14.186Z,39.41
2019-02-15T11:21:14.179Z,39.89
2019-02-15T11:22:14.156Z,40.18
2019-02-15T11:23:14.145Z,40.56
2019-02-15T11:24:14.122Z,40.95
2019-02-15T11:25:14.111Z,41.14
2019-02-15T11:26:14.095Z,41.16
2019-02-15T11:27:14.111Z,40.49
2019-02-15T11:28:14.162Z,40.01
2019-02-15T11:29:14.044Z,39.93
2019-02-15T11:30:14.033Z,40.12
2019-02-15T11:31:14.012Z,39.91
2019-02-15T11:32:13.996Z,39.91
2019-02-15T11:33:13.979Z,40.01
2019-02-15T11:34:13.963Z,41.33
2019-02-15T11:35:13.956Z,41.26
2019-02-15T11:36:13.933Z,40.51
2019-02-15T11:37:13.916Z,40.12
2019-02-15T11:38:13.903Z,39.95
2019-02-15T11:39:13.890Z,39.37
2019-02-15T11:40:13.867Z,39.09
2019-02-15T11:41:13.851Z,38.95
2019-02-15T11:42:13.834Z,39.91
2019-02-15T11:43:15.092Z,40.20
2019-02-15T11:44:13.803Z,40.97
2019-02-15T11:45:13.795Z,40.22
2019-02-15T11:46:13.769Z,40.22
2019-02-15T11:47:13.759Z,40.01
2019-02-15T11:48:13.745Z,40.03
2019-02-15T11:49:13.721Z,40.31
2019-02-15T11:50:13.703Z,39.28
2019-02-15T11:51:13.688Z,39.56
2019-02-15T11:52:13.670Z,39.28
2019-02-15T11:53:13.667Z,39.45
2019-02-15T11:54:23.107Z,39.36
2019-02-15T11:55:13.623Z,39.62
2019-02-15T11:56:13.610Z,40.22
2019-02-15T11:57:13.589Z,39.81
2019-02-15T11:58:13.570Z,40.30
2019-02-15T11:59:13.560Z,39.91
2019-02-15T12:00:14.503Z,39.91
2019-02-15T12:01:13.576Z,39.83
2019-02-15T12:02:13.511Z,40.01
2019-02-15T12:03:13.503Z,40.30
2019-02-15T12:04:13.475Z,40.31
2019-02-15T12:05:13.458Z,39.93
2019-02-15T12:06:13.437Z,40.05
2019-02-15T12:07:13.427Z,39.09
2019-02-15T12:08:13.404Z,39.39
2019-02-15T12:09:13.395Z,39.11
2019-02-15T12:10:13.369Z,38.31
2019-02-15T12:11:13.735Z,38.89
2019-02-15T12:12:13.346Z,39.18
2019-02-15T12:13:13.317Z,39.18
2019-02-15T12:14:13.310Z,39.09
2019-02-15T12:15:13.292Z,38.89
2019-02-15T12:16:13.268Z,39.28
2019-02-15T12:17:13.258Z,39.47
2019-02-15T12:18:13.235Z,39.29
2019-02-15T12:19:13.216Z,39.18
2019-02-15T12:20:13.210Z,38.79
2019-02-15T12:21:13.189Z,39.09
2019-02-15T12:22:13.179Z,39.66
2019-02-15T12:23:13.146Z,39.56
2019-02-15T12:24:13.128Z,39.78
2019-02-15T12:25:13.115Z,39.39
2019-02-15T12:26:13.103Z,39.39
2019-02-15T12:27:13.077Z,39.47
2019-02-15T12:28:13.060Z,39.37
2019-02-15T12:29:13.043Z,39.83
2019-02-15T12:30:13.030Z,39.45
2019-02-15T12:31:13.009Z,39.93
2019-02-15T12:32:12.996Z,40.12
2019-02-15T12:33:12.981Z,40.22
2019-02-15T12:34:12.956Z,40.14
2019-02-15T12:35:12.940Z,40.24
2019-02-15T12:36:12.925Z,40.05
2019-02-15T12:37:12.907Z,39.49
2019-02-15T12:38:12.897Z,39.39
2019-02-15T12:39:14.376Z,39.59
2019-02-15T12:40:12.852Z,39.56
2019-02-15T12:41:12.842Z,40.05
2019-02-15T12:42:12.818Z,40.05
2019-02-15T12:43:12.799Z,40.34
2019-02-15T12:44:12.784Z,40.61
2019-02-15T12:45:12.770Z,41.45
2019-02-15T12:46:12.755Z,42.39
2019-02-15T12:47:15.157Z,43.52
2019-02-15T12:48:12.714Z,44.27
2019-02-15T12:49:12.695Z,44.92
2019-02-15T12:50:12.674Z,46.05
2019-02-15T12:51:12.666Z,47.10
2019-02-15T12:52:12.642Z,47.68
2019-02-15T12:53:12.627Z,48.25
2019-02-15T12:54:12.607Z,48.33